Flight Track Log - Related Links

Times and Time Zones

All times are in EDT time to prevent confusion due to time zone crossing. See the N18AB flight status page for this flight to view local times or setup timezone preferences in your user account.

Time Position Orientation Groundspeed Altitude Reporting Facility
EDT Latitude Longitude Course Direction KTS MPH feet Rate Location/Type
Thu 04:18:53 PM 40.2189 -78.2247 112° Southeast 145 167 5,000  Level Cleveland Center
Thu 04:19:23 PM 40.2122 -78.2033 112° Southeast 138 159 4,900 612 Descending Cleveland Center
Thu 04:19:42 PM 40.1994 -78.1783 124° Southeast 181 208 5,500 774 Climbing Cleveland Center
Thu 04:20:25 PM 40.1872 -78.1475 117° Southeast 169 194 5,700 686 Climbing Cleveland Center
Thu 04:21:27 PM 40.1589 -78.0828 120° Southeast 173 199 6,700 871 Climbing Cleveland Center
Thu 04:22:29 PM 40.1314 -78.0356 127° Southeast 168 193 7,500 774 Climbing Cleveland Center
Thu 04:23:31 PM 40.1019 -77.9883 129° Southeast 169 194 8,300 726 Climbing Cleveland Center
Thu 04:24:33 PM 40.0769 -77.9361 122° Southeast 170 196 9,000 339 Climbing Cleveland Center
Thu 04:25:35 PM 40.0458 -77.8753 124° Southeast 183 211 9,000 48 Level Cleveland Center
Thu 04:26:37 PM 40.0194 -77.8178 121° Southeast 184 212 9,100 48 Climbing Cleveland Center
Thu 04:27:39 PM 39.9950 -77.7589 118° Southeast 184 212 9,100  Level Cleveland Center
Thu 04:28:41 PM 39.9642 -77.7050 127° Southeast 185 213 9,100  Level Cleveland Center
Thu 04:29:43 PM 39.9356 -77.6489 124° Southeast 186 214 9,100  Level Cleveland Center
Thu 04:30:45 PM 39.9053 -77.5781 119° Southeast 186 214 9,100  Level Cleveland Center
Thu 04:31:48 PM 39.8811 -77.5175 117° Southeast 188 216 9,100  Level Cleveland Center
Thu 04:32:50 PM 39.8533 -77.4600 122° Southeast 190 219 9,100 -353 Level Cleveland Center
Thu 04:33:47 PM 39.8167 -77.4000 128° Southeast 204 235 8,400 -1,018 Descending Potomac TRACON
Thu 04:34:42 PM 39.7833 -77.3333 123° Southeast 226 260 7,200 -730 Descending Potomac TRACON
Thu 04:35:42 PM 39.7500 -77.2833 131° Southeast 201 231 7,000 -100 Descending Potomac TRACON
Thu 04:36:42 PM 39.7167 -77.2167 123° Southeast 187 215 7,000  Level Potomac TRACON
Thu 04:37:42 PM 39.7000 -77.1667 113° Southeast 184 212 7,000  Level Potomac TRACON
Thu 04:38:42 PM 39.6667 -77.1167 131° Southeast 181 208 7,000 -650 Level Potomac TRACON
Thu 04:39:42 PM 39.6500 -77.0500 108° East 211 243 5,700 -1,228 Descending Potomac TRACON
Thu 04:40:49 PM 39.6167 -76.9833 123° Southeast 213 245 4,400 -756 Descending Potomac TRACON
Thu 04:41:49 PM 39.5833 -76.9167 123° Southeast 196 226 4,100 -200 Descending Potomac TRACON
Thu 04:42:49 PM 39.5500 -76.8500 123° Southeast 181 208 4,000 -50 Descending Potomac TRACON
Thu 04:43:49 PM 39.5333 -76.8000 113° Southeast 176 203 4,000 -250 Level Potomac TRACON
Thu 04:44:49 PM 39.5000 -76.7500 131° Southeast 186 214 3,500 -522 Descending Potomac TRACON
Thu 04:45:44 PM 39.4833 -76.7000 113° Southeast 189 217 3,000 -313 Descending Potomac TRACON
Thu 04:46:44 PM 39.4500 -76.6500 131° Southeast 178 205 2,900  Descending Potomac TRACON
Thu 04:47:44 PM 39.4333 -76.5833 108° East 177 204 3,000 50 Climbing Potomac TRACON
Thu 04:48:44 PM 39.4333 -76.5333 90° East 175 201 3,000  Level Potomac TRACON
Thu 04:49:45 PM 39.4000 -76.5000 142° Southeast 172 198 3,000  Level Potomac TRACON
Thu 04:50:45 PM 39.3500 -76.4833 166° South 173 199 3,000  Level Potomac TRACON
Thu 04:51:45 PM 39.3167 -76.4667 159° South 169 194 3,000 -53 Level Potomac TRACON
Thu 04:52:39 PM 39.2667 -76.4333 153° Southeast 172 198 2,900 -48 Descending Potomac TRACON
Thu 04:53:51 PM 39.2333 -76.3833 131° Southeast 181 208 2,900 -286 Level Potomac TRACON
Thu 04:54:45 PM 39.2500 -76.3500 57° Northeast 173 199 2,300 -1,100 Descending Potomac TRACON
Thu 04:55:51 PM 39.3000 -76.3833 333° Northwest 155 178 700 -1,455 Descending Potomac TRACON

Login

Don't have an account? Register now (free) for customized features, flight alerts, and more!